Time;durP1;ratioP1;P1;durP2;ratioP2;P2;SDS_P1;SDS_P2;PMS_P1;PMS_P2;Temp;Humidity;BMP_temperature;BMP_pressure;BME280_temperature;BME280_humidity;BME280_pressure;Samples;Min_cycle;Max_cycle;Signal;HPM_P1;HPM_P2
2024/03/23 21:13:03;;;;;;;;;;;;;;;;;;132765;1311;544086;-83
2024/03/23 21:16:06;;;;;;;;;;;;;;;;;;135785;1287;22568;-83
2024/03/23 21:19:08;;;;;;;;;;;;;;;;;;136224;1287;22528;-84
2024/03/23 21:22:10;;;;;;;;;;;;;;;;;;135986;1287;22510;-83
2024/03/23 21:25:13;;;;;;;;;;;;;;;;;;135639;1285;189712;-83
2024/03/23 21:28:15;;;;;;;;;;;;;;;;;;135877;1285;22520;-83
2024/03/23 21:31:17;;;;;;;;;;;;;;;;;;136515;1285;22528;-82
2024/03/23 21:34:20;;;;;;;;;;;;;;;;;;135815;1285;22561;-82
2024/03/23 21:37:22;;;;;;;;;;;;;;;;;;135987;1285;22596;-81
2024/03/23 21:40:24;;;;;;;;;;;;;;;;;;136602;1281;22497;-82
2024/03/23 21:43:27;;;;;;;;;;;;;;;;;;136204;1281;22621;-82
2024/03/23 21:46:30;;;;;;;;;;;;;;;;;;136007;1281;22570;-82
2024/03/23 21:49:32;;;;;;;;;;;;;;;;;;136449;1282;22528;-81
2024/03/23 21:52:34;;;;;;;;;;;;;;;;;;136302;1282;22544;-82
2024/03/23 21:55:37;;;;;;;;;;;;;;;;;;136118;1282;22508;-83
2024/03/23 21:58:39;;;;;;;;;;;;;;;;;;136300;1281;22548;-84
2024/03/23 22:01:41;;;;;;;;;;;;;;;;;;136427;1281;22564;-83
2024/03/23 22:04:43;;;;;;;;;;;;;;;;;;136070;1281;22532;-82
2024/03/23 22:07:46;;;;;;;;;;;;;;;;;;136045;1282;23041;-81
2024/03/23 22:10:48;;;;;;;;;;;;;;;;;;136753;1281;22503;-83
2024/03/23 22:13:51;;;;;;;;;;;;;;;;;;136663;1281;23118;-82
2024/03/23 22:16:53;;;;;;;;;;;;;;;;;;136523;1282;22726;-82
2024/03/23 22:19:56;;;;;;;;;;;;;;;;;;136643;1281;22476;-81
2024/03/23 22:22:58;;;;;;;;;;;;;;;;;;136587;1281;22541;-81
2024/03/23 22:26:01;;;;;;;;;;;;;;;;;;136585;1281;22979;-81
2024/03/23 22:29:03;;;;;;;;;;;;;;;;;;136238;1281;25022;-80
2024/03/23 22:32:05;;;;;;;;;;;;;;;;;;136340;1281;22530;-81
2024/03/23 22:35:08;;;;;;;;;;;;;;;;;;136555;1281;22644;-80
2024/03/23 22:38:10;;;;;;;;;;;;;;;;;;136371;1281;23138;-81
2024/03/23 22:41:13;;;;;;;;;;;;;;;;;;136490;1281;22535;-82
2024/03/23 22:44:15;;;;;;;;;;;;;;;;;;136903;1278;22984;-82
2024/03/23 22:47:18;;;;;;;;;;;;;;;;;;137133;1276;22597;-81
2024/03/23 22:50:20;;;;;;;;;;;;;;;;;;137017;1276;22565;-82
2024/03/23 22:53:22;;;;;;;;;;;;;;;;;;137319;1276;22521;-81
2024/03/23 22:56:25;;;;;;;;;;;;;;;;;;137171;1276;22557;-81
2024/03/23 22:59:27;;;;;;;;;;;;;;;;;;137113;1276;22532;-82
2024/03/23 23:02:29;;;;;;;;;;;;;;;;;;137299;1276;22512;-82
2024/03/23 23:05:32;;;;;;;;;;;;;;;;;;137079;1276;22529;-82
2024/03/23 23:08:36;;;;;;;;;;;;;;;;;;137055;1276;22550;-81
2024/03/23 23:11:38;;;;;;;;;;;;;;;;;;137281;1276;22510;-81
2024/03/23 23:14:40;;;;;;;;;;;;;;;;;;136889;1276;22533;-81
2024/03/23 23:17:43;;;;;;;;;;;;;;;;;;137102;1276;22524;-82
2024/03/23 23:20:45;;;;;;;;;;;;;;;;;;137026;1276;24203;-82
2024/03/23 23:23:47;;;;;;;;;;;;;;;;;;137183;1276;22509;-80
2024/03/23 23:26:50;;;;;;;;;;;;;;;;;;137057;1276;22534;-83
2024/03/23 23:29:52;;;;;;;;;;;;;;;;;;137132;1276;22506;-83
2024/03/23 23:32:54;;;;;;;;;;;;;;;;;;137303;1276;22512;-81
2024/03/23 23:35:57;;;;;;;;;;;;;;;;;;136896;1276;22625;-81
2024/03/23 23:38:59;;;;;;;;;;;;;;;;;;137030;1270;22611;-81
2024/03/23 23:42:02;;;;;;;;;;;;;;;;;;137271;1276;22511;-82
2024/03/23 23:45:04;;;;;;;;;;;;;;;;;;137193;1276;23057;-81
2024/03/23 23:48:06;;;;;;;;;;;;;;;;;;137046;1276;23013;-81
2024/03/23 23:51:09;;;;;;;;;;;;;;;;;;137233;1276;22613;-80
2024/03/23 23:54:11;;;;;;;;;;;;;;;;;;137218;1276;22541;-81
2024/03/23 23:57:13;;;;;;;;;;;;;;;;;;137143;1272;22583;-81
